createdAt,value
2022-09-25T00:01:33.683Z,11.34
2022-09-25T00:04:03.242Z,11.34
2022-09-25T00:06:32.953Z,11.34
2022-09-25T00:09:01.743Z,11.34
2022-09-25T00:11:33.370Z,11.35
2022-09-25T00:14:03.279Z,11.34
2022-09-25T00:16:32.928Z,11.34
2022-09-25T00:19:19.994Z,11.34
2022-09-25T00:21:52.794Z,11.35
2022-09-25T00:24:21.652Z,11.35
2022-09-25T00:26:50.570Z,11.35
2022-09-25T00:29:20.322Z,11.34
2022-09-25T00:31:48.850Z,11.34
2022-09-25T00:34:17.371Z,11.34
2022-09-25T00:36:46.072Z,11.34
2022-09-25T00:39:14.747Z,11.34
2022-09-25T00:41:43.212Z,11.33
2022-09-25T00:44:44.050Z,11.33
2022-09-25T00:47:16.063Z,11.33
2022-09-25T00:49:45.445Z,11.32
2022-09-25T00:52:14.199Z,11.31
2022-09-25T00:54:48.165Z,11.30
2022-09-25T00:57:20.463Z,11.30
2022-09-25T00:59:54.135Z,11.28
2022-09-25T01:02:26.967Z,11.28
2022-09-25T01:05:00.003Z,11.27
2022-09-25T01:07:28.932Z,11.27
2022-09-25T01:09:58.719Z,11.26
2022-09-25T01:12:27.455Z,11.26
2022-09-25T01:14:56.754Z,11.26
2022-09-25T01:17:32.584Z,11.24
2022-09-25T01:20:15.891Z,11.23
2022-09-25T01:22:58.473Z,11.22
2022-09-25T01:25:41.996Z,11.19
2022-09-25T01:28:25.426Z,11.18
2022-09-25T01:31:03.051Z,11.16
2022-09-25T01:33:35.037Z,11.16
2022-09-25T01:36:11.250Z,11.16
2022-09-25T01:38:44.759Z,11.15
2022-09-25T01:41:18.266Z,11.13
2022-09-25T01:43:52.241Z,11.13
2022-09-25T01:46:24.454Z,11.12
2022-09-25T01:48:59.873Z,11.11
2022-09-25T01:51:31.312Z,11.09
2022-09-25T01:54:05.360Z,11.07
2022-09-25T01:56:40.079Z,11.06
2022-09-25T01:59:16.928Z,11.05
2022-09-25T02:01:47.042Z,11.04
2022-09-25T02:04:21.211Z,11.03
2022-09-25T02:06:53.037Z,11.00
2022-09-25T02:09:26.873Z,10.98
2022-09-25T02:11:59.711Z,10.97
2022-09-25T02:14:33.821Z,10.94
2022-09-25T02:17:05.222Z,10.92
2022-09-25T02:19:53.674Z,10.90
2022-09-25T02:22:26.071Z,10.86
2022-09-25T02:25:00.363Z,10.84
2022-09-25T02:27:29.267Z,10.82
2022-09-25T02:29:58.330Z,10.79
2022-09-25T02:32:31.361Z,10.75
2022-09-25T02:35:00.822Z,10.73
2022-09-25T02:37:30.476Z,10.69
2022-09-25T02:40:01.599Z,10.65
2022-09-25T02:42:39.367Z,10.62
2022-09-25T02:45:14.449Z,10.58
2022-09-25T02:47:54.122Z,10.57
2022-09-25T02:50:25.949Z,10.54
2022-09-25T02:53:03.526Z,10.49
2022-09-25T02:55:37.439Z,10.47
2022-09-25T02:58:12.769Z,10.43
2022-09-25T03:00:43.983Z,10.41
2022-09-25T03:03:16.465Z,10.38
2022-09-25T03:05:46.561Z,10.35
2022-09-25T03:08:33.830Z,10.33
2022-09-25T03:11:04.877Z,10.30
2022-09-25T03:13:34.294Z,10.26
2022-09-25T03:16:07.621Z,10.23
2022-09-25T03:18:37.463Z,10.22
2022-09-25T03:21:06.336Z,10.20
2022-09-25T03:23:34.934Z,10.17
2022-09-25T03:26:04.656Z,10.15
2022-09-25T03:28:36.359Z,10.12
2022-09-25T03:31:08.037Z,10.09
2022-09-25T03:33:38.359Z,10.07
2022-09-25T03:36:10.585Z,10.04
2022-09-25T03:38:40.608Z,10.00
2022-09-25T03:41:11.324Z,9.97
2022-09-25T03:43:42.839Z,9.92
2022-09-25T03:46:13.783Z,9.90
2022-09-25T03:48:42.440Z,9.86
2022-09-25T03:51:11.381Z,9.82
2022-09-25T03:53:40.737Z,9.77
2022-09-25T03:56:12.708Z,9.74
2022-09-25T03:58:41.575Z,9.70
2022-09-25T04:01:10.396Z,9.65
2022-09-25T04:03:39.466Z,9.61
2022-09-25T04:06:09.761Z,9.56
2022-09-25T04:08:38.403Z,9.52
2022-09-25T04:11:07.097Z,9.48
2022-09-25T04:13:36.898Z,9.45
2022-09-25T04:16:07.791Z,9.42
2022-09-25T04:18:36.443Z,9.38
2022-09-25T04:21:08.068Z,9.34
2022-09-25T04:23:37.615Z,9.30
2022-09-25T04:26:07.278Z,9.26
2022-09-25T04:28:35.937Z,9.23
2022-09-25T04:31:04.477Z,9.18
2022-09-25T04:33:48.660Z,9.14
2022-09-25T04:36:18.351Z,9.11
2022-09-25T04:38:47.738Z,9.08
2022-09-25T04:41:19.106Z,9.05
2022-09-25T04:43:48.215Z,9.03
2022-09-25T04:46:21.949Z,9.00
2022-09-25T04:48:51.200Z,8.96
2022-09-25T04:51:19.841Z,8.94
2022-09-25T04:53:48.609Z,8.92
2022-09-25T04:56:17.849Z,8.90
2022-09-25T04:58:48.661Z,8.87
2022-09-25T05:01:19.111Z,8.85
2022-09-25T05:03:50.042Z,8.82
2022-09-25T05:06:18.903Z,8.81
2022-09-25T05:08:49.173Z,8.80
2022-09-25T05:11:17.707Z,8.79
2022-09-25T05:13:50.773Z,8.78
2022-09-25T05:16:19.804Z,8.78
2022-09-25T05:18:48.354Z,8.78
2022-09-25T05:21:17.063Z,8.78
2022-09-25T05:23:45.544Z,8.79
2022-09-25T05:26:14.027Z,8.82
2022-09-25T05:28:42.455Z,8.85
2022-09-25T05:31:11.531Z,8.89
2022-09-25T05:33:40.475Z,8.93
2022-09-25T05:36:10.074Z,8.99
2022-09-25T05:38:41.950Z,9.04
2022-09-25T05:41:11.452Z,9.08
2022-09-25T05:43:42.338Z,9.12
2022-09-25T05:46:11.410Z,9.16
2022-09-25T05:48:40.400Z,9.20
2022-09-25T05:51:09.318Z,9.25
2022-09-25T05:53:37.915Z,9.29
2022-09-25T05:56:06.777Z,9.32
2022-09-25T05:58:36.203Z,9.37
2022-09-25T06:01:06.189Z,9.42
2022-09-25T06:03:35.616Z,9.47
2022-09-25T06:06:05.582Z,9.52
2022-09-25T06:08:34.957Z,9.57
2022-09-25T06:11:04.084Z,9.61
2022-09-25T06:13:36.162Z,9.64
2022-09-25T06:16:13.039Z,9.65
2022-09-25T06:18:41.572Z,9.66
2022-09-25T06:21:10.295Z,9.68
2022-09-25T06:23:38.877Z,9.71
2022-09-25T06:26:08.856Z,9.72
2022-09-25T06:28:40.039Z,9.73
2022-09-25T06:31:11.148Z,9.75
2022-09-25T06:33:39.791Z,9.77
2022-09-25T06:36:08.427Z,9.76
2022-09-25T06:38:37.131Z,9.82
2022-09-25T06:41:05.999Z,9.85
2022-09-25T06:43:35.180Z,9.89
2022-09-25T06:46:04.335Z,9.93
2022-09-25T06:48:33.093Z,9.98
2022-09-25T06:51:01.819Z,10.05
2022-09-25T06:53:30.721Z,10.10
2022-09-25T06:55:59.590Z,10.16
2022-09-25T06:58:30.064Z,10.21
2022-09-25T07:00:58.976Z,10.27
2022-09-25T07:03:46.641Z,10.34
2022-09-25T07:06:21.544Z,10.42
2022-09-25T07:08:51.533Z,10.49
2022-09-25T07:12:31.895Z,10.59
2022-09-25T07:14:47.833Z,10.66
2022-09-25T07:17:19.908Z,10.76
2022-09-25T07:20:29.953Z,10.86
2022-09-25T07:23:03.320Z,10.97
2022-09-25T07:25:31.930Z,11.04
2022-09-25T07:28:00.487Z,11.07
2022-09-25T07:30:31.931Z,11.12
2022-09-25T07:33:31.933Z,11.19
2022-09-25T07:36:09.201Z,11.25
2022-09-25T07:38:39.181Z,11.29
2022-09-25T07:41:12.429Z,11.34
2022-09-25T07:43:42.775Z,11.37
2022-09-25T07:46:12.479Z,11.42
2022-09-25T07:48:40.998Z,11.48
2022-09-25T07:51:11.743Z,11.53
2022-09-25T07:53:44.147Z,11.58
2022-09-25T07:56:12.868Z,11.61
2022-09-25T07:58:42.103Z,11.67
2022-09-25T08:01:12.907Z,11.72
2022-09-25T08:03:41.518Z,11.79
2022-09-25T08:06:13.656Z,11.86
2022-09-25T08:08:47.659Z,11.92
2022-09-25T08:11:17.660Z,12.00
2022-09-25T08:13:46.542Z,12.07
2022-09-25T08:16:18.047Z,12.12
2022-09-25T08:18:47.260Z,12.19
2022-09-25T08:21:18.946Z,12.26
2022-09-25T08:23:52.057Z,12.33
2022-09-25T08:26:22.449Z,12.40
2022-09-25T08:28:51.477Z,12.46
2022-09-25T08:31:21.084Z,12.52
2022-09-25T08:33:51.839Z,12.55
2022-09-25T08:36:21.170Z,12.57
2022-09-25T08:38:52.547Z,12.60
2022-09-25T08:41:25.587Z,12.64
2022-09-25T08:44:01.804Z,12.69
2022-09-25T08:46:58.246Z,12.74
2022-09-25T08:49:30.643Z,12.80
2022-09-25T08:52:03.011Z,12.86
2022-09-25T08:54:36.728Z,12.96
2022-09-25T08:57:16.453Z,13.06
2022-09-25T08:59:49.036Z,13.17
2022-09-25T09:02:20.577Z,13.30
2022-09-25T09:04:53.328Z,13.43
2022-09-25T09:07:27.690Z,13.58
2022-09-25T09:10:02.704Z,13.69
2022-09-25T09:12:38.431Z,13.77
2022-09-25T09:15:20.546Z,13.86
2022-09-25T09:17:49.022Z,13.93
2022-09-25T09:20:21.597Z,14.03
2022-09-25T09:22:52.600Z,14.11
2022-09-25T09:25:28.510Z,14.19
2022-09-25T09:28:20.247Z,14.23
2022-09-25T09:30:59.993Z,14.27
2022-09-25T09:33:41.061Z,14.34
2022-09-25T09:36:19.259Z,14.42
2022-09-25T09:38:57.187Z,14.49
2022-09-25T09:41:38.404Z,14.53
2022-09-25T09:44:24.061Z,14.62
2022-09-25T09:47:02.949Z,14.70
2022-09-25T09:49:37.467Z,14.76
2022-09-25T09:52:13.879Z,14.81
2022-09-25T09:54:47.906Z,14.85
2022-09-25T09:57:21.668Z,14.83
2022-09-25T09:59:58.379Z,14.80
2022-09-25T10:02:36.871Z,14.80
2022-09-25T10:05:15.355Z,14.82
2022-09-25T10:07:46.016Z,14.86
2022-09-25T10:10:16.244Z,14.92
2022-09-25T10:12:50.264Z,14.95
2022-09-25T10:15:26.954Z,14.96
2022-09-25T10:17:58.451Z,14.99
2022-09-25T10:20:35.322Z,15.00
2022-09-25T10:23:06.290Z,15.00
2022-09-25T10:25:39.649Z,15.00
2022-09-25T10:28:29.195Z,15.03
2022-09-25T10:30:59.379Z,15.08
2022-09-25T10:33:29.806Z,15.12
2022-09-25T10:35:59.053Z,15.16
2022-09-25T10:38:38.220Z,15.20
2022-09-25T10:41:11.493Z,15.24
2022-09-25T10:44:01.667Z,15.27
2022-09-25T10:46:52.483Z,15.31
2022-09-25T10:49:41.565Z,15.37
2022-09-25T10:52:11.991Z,15.42
2022-09-25T10:54:45.207Z,15.43
2022-09-25T10:57:33.486Z,15.46
2022-09-25T11:00:05.640Z,15.52
2022-09-25T11:02:38.434Z,15.58
2022-09-25T11:05:18.028Z,15.64
2022-09-25T11:07:51.683Z,15.69
2022-09-25T11:10:22.874Z,15.72
2022-09-25T11:12:52.390Z,15.78
2022-09-25T11:15:23.206Z,15.84
2022-09-25T11:17:53.644Z,15.89
2022-09-25T11:20:28.988Z,15.92
2022-09-25T11:23:15.763Z,15.96
2022-09-25T11:25:53.097Z,16.01
2022-09-25T11:28:30.340Z,16.08
2022-09-25T11:31:02.931Z,16.14
2022-09-25T11:33:42.331Z,16.21
2022-09-25T11:36:17.700Z,16.26
2022-09-25T11:39:08.328Z,16.30
2022-09-25T11:41:43.150Z,16.36
2022-09-25T11:44:26.120Z,16.39
2022-09-25T11:47:05.004Z,16.42
2022-09-25T11:49:35.833Z,16.43
2022-09-25T11:52:36.539Z,16.43
2022-09-25T11:55:43.671Z,16.41
2022-09-25T11:58:37.154Z,16.46
2022-09-25T12:01:14.753Z,16.52
2022-09-25T12:03:58.013Z,16.58
2022-09-25T12:06:46.614Z,16.62
2022-09-25T12:09:29.719Z,16.66
2022-09-25T12:12:06.784Z,16.69
2022-09-25T12:14:49.867Z,16.76
2022-09-25T12:17:29.095Z,16.80
2022-09-25T12:20:06.742Z,16.86
2022-09-25T12:22:48.027Z,16.92
2022-09-25T12:25:33.878Z,16.95
2022-09-25T12:28:13.269Z,16.97
2022-09-25T12:30:55.446Z,16.96
2022-09-25T12:33:35.056Z,16.98
2022-09-25T12:36:10.838Z,17.00
2022-09-25T12:38:47.533Z,16.98
2022-09-25T12:41:24.496Z,16.91
2022-09-25T12:44:01.119Z,16.91
2022-09-25T12:46:37.531Z,16.87
2022-09-25T12:49:13.667Z,16.85
2022-09-25T12:51:46.645Z,16.83
2022-09-25T12:54:27.517Z,16.80
2022-09-25T12:57:00.300Z,16.76
2022-09-25T12:59:35.469Z,16.76
2022-09-25T13:02:09.987Z,16.78
2022-09-25T13:04:56.635Z,16.78
2022-09-25T13:07:32.206Z,16.75
2022-09-25T13:10:03.562Z,16.77
2022-09-25T13:12:36.200Z,16.80
2022-09-25T13:15:10.061Z,16.81
2022-09-25T13:17:40.439Z,16.81
2022-09-25T13:20:49.940Z,16.81
2022-09-25T13:23:28.050Z,16.86
2022-09-25T13:26:00.291Z,16.86
2022-09-25T13:28:32.248Z,16.85
2022-09-25T13:31:09.113Z,16.89
2022-09-25T13:33:44.747Z,16.90
2022-09-25T13:36:41.234Z,16.89
2022-09-25T13:39:39.697Z,16.91
2022-09-25T13:42:16.005Z,16.90
2022-09-25T13:45:06.006Z,16.87
2022-09-25T13:47:54.717Z,16.82
2022-09-25T13:50:32.056Z,16.82
2022-09-25T13:53:26.375Z,16.79
2022-09-25T13:56:29.874Z,16.75
2022-09-25T13:59:07.133Z,16.73
2022-09-25T14:01:39.275Z,16.73
2022-09-25T14:04:21.295Z,16.73
2022-09-25T14:06:53.414Z,16.74
2022-09-25T14:09:24.433Z,16.75
2022-09-25T14:12:02.187Z,16.74
2022-09-25T14:14:36.638Z,16.71
2022-09-25T14:17:07.906Z,16.68
2022-09-25T14:19:42.152Z,16.67
2022-09-25T14:22:22.462Z,16.61
2022-09-25T14:24:52.616Z,16.56
2022-09-25T14:27:25.731Z,16.51
2022-09-25T14:30:04.419Z,16.49
2022-09-25T14:32:54.977Z,16.44
2022-09-25T14:35:42.451Z,16.42
2022-09-25T14:38:35.193Z,16.39
2022-09-25T14:41:22.214Z,16.38
2022-09-25T14:44:09.175Z,16.33
2022-09-25T14:46:40.978Z,16.31
2022-09-25T14:49:18.263Z,16.29
2022-09-25T14:51:54.095Z,16.29
2022-09-25T14:54:25.763Z,16.31
2022-09-25T14:56:57.237Z,16.30
2022-09-25T14:59:39.500Z,16.26
2022-09-25T15:02:16.308Z,16.26
2022-09-25T15:04:45.136Z,16.23
2022-09-25T15:07:17.657Z,16.19
2022-09-25T15:09:47.711Z,16.18
2022-09-25T15:12:20.644Z,16.19
2022-09-25T15:15:05.980Z,16.20
2022-09-25T15:17:46.135Z,16.20
2022-09-25T15:20:16.961Z,16.17
2022-09-25T15:22:50.309Z,16.09
2022-09-25T15:25:24.078Z,16.05
2022-09-25T15:27:53.478Z,16.01
2022-09-25T15:30:25.516Z,15.97
2022-09-25T15:33:00.861Z,15.97
2022-09-25T15:35:32.323Z,15.95
2022-09-25T15:38:11.888Z,15.91
2022-09-25T15:40:41.084Z,15.87
2022-09-25T15:43:13.470Z,15.82
2022-09-25T15:45:45.947Z,15.78
2022-09-25T15:48:29.370Z,15.73
2022-09-25T15:51:01.188Z,15.68
2022-09-25T15:53:32.343Z,15.65
2022-09-25T15:56:59.864Z,15.61
2022-09-25T16:00:02.034Z,15.51
2022-09-25T16:02:54.982Z,15.47
2022-09-25T16:05:30.256Z,15.40
2022-09-25T16:08:17.284Z,15.34
2022-09-25T16:10:50.079Z,15.28
2022-09-25T16:13:26.892Z,15.23
2022-09-25T16:15:56.506Z,15.16
2022-09-25T16:18:39.151Z,15.09
2022-09-25T16:21:19.257Z,15.04
2022-09-25T16:23:56.959Z,14.96
2022-09-25T16:26:35.738Z,14.91
2022-09-25T16:29:17.802Z,14.85
2022-09-25T16:31:47.277Z,14.80
2022-09-25T16:34:25.581Z,14.75
2022-09-25T16:36:57.673Z,14.71
2022-09-25T16:39:29.546Z,14.67
2022-09-25T16:42:00.543Z,14.63
2022-09-25T16:44:42.426Z,14.60
2022-09-25T16:47:19.664Z,14.55
2022-09-25T16:50:07.628Z,14.52
2022-09-25T16:52:49.837Z,14.48
2022-09-25T16:55:22.570Z,14.44
2022-09-25T16:57:53.020Z,14.41
2022-09-25T17:00:24.681Z,14.37
2022-09-25T17:03:03.758Z,14.34
2022-09-25T17:05:32.807Z,14.31
2022-09-25T17:08:11.877Z,14.28
2022-09-25T17:10:40.669Z,14.25
2022-09-25T17:13:13.332Z,14.20
2022-09-25T17:15:42.389Z,14.19
2022-09-25T17:18:17.322Z,14.17
2022-09-25T17:20:47.161Z,14.14
2022-09-25T17:23:18.087Z,14.11
2022-09-25T17:25:50.003Z,14.08
2022-09-25T17:28:18.514Z,14.05
2022-09-25T17:30:47.039Z,13.98
2022-09-25T17:33:18.336Z,13.94
2022-09-25T17:35:51.327Z,13.89
2022-09-25T17:38:20.231Z,13.85
2022-09-25T17:43:42.664Z,13.72
2022-09-25T17:46:16.044Z,13.65
2022-09-25T17:48:53.939Z,13.59
2022-09-25T17:51:31.171Z,13.53
2022-09-25T17:54:01.818Z,13.47
2022-09-25T17:56:30.480Z,13.40
2022-09-25T17:59:00.008Z,13.34
2022-09-25T18:01:34.079Z,13.28
2022-09-25T18:04:18.215Z,13.21
2022-09-25T18:06:46.825Z,13.15
2022-09-25T18:09:15.783Z,13.09
2022-09-25T18:11:44.609Z,13.03
2022-09-25T18:14:14.986Z,12.98
2022-09-25T18:16:45.208Z,12.93
2022-09-25T18:19:37.799Z,12.87
2022-09-25T18:22:20.845Z,12.80
2022-09-25T18:24:54.036Z,12.74
2022-09-25T18:27:24.550Z,12.67
2022-09-25T18:29:53.530Z,12.60
2022-09-25T18:32:23.431Z,12.55
2022-09-25T18:34:51.975Z,12.49
2022-09-25T18:37:20.537Z,12.42
2022-09-25T18:39:50.225Z,12.37
2022-09-25T18:42:19.708Z,12.31
2022-09-25T18:44:48.521Z,12.24
2022-09-25T18:47:26.832Z,12.16
2022-09-25T18:50:24.106Z,12.11
2022-09-25T18:53:03.251Z,12.02
2022-09-25T18:56:41.841Z,11.95
2022-09-25T18:59:22.787Z,11.85
2022-09-25T19:02:16.214Z,11.78
2022-09-25T19:04:45.128Z,11.73
2022-09-25T19:07:13.828Z,11.66
2022-09-25T19:09:42.582Z,11.61
2022-09-25T19:12:16.595Z,11.56
2022-09-25T19:14:46.230Z,11.50
2022-09-25T19:17:15.561Z,11.46
2022-09-25T19:19:44.430Z,11.40
2022-09-25T19:22:17.231Z,11.36
2022-09-25T19:24:46.189Z,11.32
2022-09-25T19:27:16.286Z,11.26
2022-09-25T19:29:46.299Z,11.23
2022-09-25T19:32:17.326Z,11.19
2022-09-25T19:34:45.959Z,11.14
2022-09-25T19:37:15.007Z,11.09
2022-09-25T19:40:02.553Z,11.05
2022-09-25T19:42:33.088Z,11.00
2022-09-25T19:45:01.531Z,10.95
2022-09-25T19:47:31.271Z,10.91
2022-09-25T19:49:59.797Z,10.86
2022-09-25T19:52:28.625Z,10.81
2022-09-25T19:54:57.490Z,10.76
2022-09-25T19:57:27.097Z,10.71
2022-09-25T19:59:55.608Z,10.66
2022-09-25T20:02:24.381Z,10.62
2022-09-25T20:04:52.877Z,10.58
2022-09-25T20:07:21.389Z,10.54
2022-09-25T20:09:49.905Z,10.48
2022-09-25T20:12:18.481Z,10.44
2022-09-25T20:14:48.282Z,10.40
2022-09-25T20:17:17.175Z,10.36
2022-09-25T20:19:45.574Z,10.32
2022-09-25T20:22:14.604Z,10.28
2022-09-25T20:24:43.211Z,10.25
2022-09-25T20:27:11.677Z,10.21
2022-09-25T20:29:40.123Z,10.17
2022-09-25T20:32:09.169Z,10.12
2022-09-25T20:34:37.601Z,10.09
2022-09-25T20:37:06.016Z,10.05
2022-09-25T20:39:34.438Z,10.01
2022-09-25T20:42:02.965Z,9.98
2022-09-25T20:44:31.458Z,9.95
2022-09-25T20:46:59.871Z,9.91
2022-09-25T20:49:28.257Z,9.89
2022-09-25T20:51:56.674Z,9.87
2022-09-25T20:54:25.304Z,9.85
2022-09-25T20:56:54.027Z,9.84
2022-09-25T20:59:22.774Z,9.82
2022-09-25T21:01:51.812Z,9.80
2022-09-25T21:04:20.381Z,9.78
2022-09-25T21:06:49.456Z,9.76
2022-09-25T21:09:20.755Z,9.74
2022-09-25T21:11:49.791Z,9.71
2022-09-25T21:14:20.699Z,9.69
2022-09-25T21:16:50.607Z,9.67
2022-09-25T21:19:20.961Z,9.65
2022-09-25T21:21:49.966Z,9.63
2022-09-25T21:24:20.658Z,9.60
2022-09-25T21:26:50.584Z,9.59
2022-09-25T21:29:20.509Z,9.56
2022-09-25T21:31:50.861Z,9.55
2022-09-25T21:34:21.217Z,9.53
2022-09-25T21:36:49.689Z,9.52
2022-09-25T21:39:21.002Z,9.50
2022-09-25T21:41:52.756Z,9.49
2022-09-25T21:44:24.145Z,9.48
2022-09-25T21:46:52.596Z,9.47
2022-09-25T21:49:22.658Z,9.47
2022-09-25T21:51:51.753Z,9.47
2022-09-25T21:54:21.621Z,9.45
2022-09-25T21:56:50.067Z,9.44
2022-09-25T21:59:19.112Z,9.44
2022-09-25T22:01:48.476Z,9.44
2022-09-25T22:04:16.995Z,9.44
2022-09-25T22:06:46.992Z,9.45
2022-09-25T22:09:18.643Z,9.46
2022-09-25T22:11:48.483Z,9.47
2022-09-25T22:14:17.081Z,9.50
2022-09-25T22:16:47.293Z,9.52
2022-09-25T22:19:19.356Z,9.53
2022-09-25T22:21:49.471Z,9.55
2022-09-25T22:24:18.201Z,9.58
2022-09-25T22:26:48.868Z,9.61
2022-09-25T22:29:19.977Z,9.63
2022-09-25T22:31:49.274Z,9.64
2022-09-25T22:34:21.728Z,9.65
2022-09-25T22:36:56.237Z,9.65
2022-09-25T22:39:29.015Z,9.65
2022-09-25T22:41:58.568Z,9.65
2022-09-25T22:44:27.335Z,9.65
2022-09-25T22:46:57.166Z,9.65
2022-09-25T22:49:26.076Z,9.64
2022-09-25T22:51:54.849Z,9.64
2022-09-25T22:54:23.649Z,9.65
2022-09-25T22:56:53.356Z,9.64
2022-09-25T22:59:21.804Z,9.63
2022-09-25T23:01:52.840Z,9.62
2022-09-25T23:04:23.969Z,9.62
2022-09-25T23:06:53.078Z,9.62
2022-09-25T23:09:25.205Z,9.63
2022-09-25T23:11:55.015Z,9.63
2022-09-25T23:14:28.400Z,9.64
2022-09-25T23:16:57.246Z,9.64
2022-09-25T23:19:26.058Z,9.64
2022-09-25T23:21:55.505Z,9.65
2022-09-25T23:24:24.526Z,9.65
2022-09-25T23:26:53.568Z,9.65
2022-09-25T23:29:22.565Z,9.64
2022-09-25T23:31:51.719Z,9.63
2022-09-25T23:34:20.637Z,9.62
2022-09-25T23:36:49.059Z,9.62
2022-09-25T23:39:19.453Z,9.60
2022-09-25T23:41:48.669Z,9.60
2022-09-25T23:44:17.323Z,9.58
2022-09-25T23:46:45.874Z,9.58
2022-09-25T23:49:15.251Z,9.56
2022-09-25T23:51:45.613Z,9.55
2022-09-25T23:54:14.260Z,9.53
2022-09-25T23:56:43.085Z,9.50
2022-09-25T23:59:14.691Z,9.48
